sensor_id;sensor_type;location;lat;lon;timestamp;P1;durP1;ratioP1;P2;durP2;ratioP2
50433;SDS011;36361;38.954;-9.002;2022-10-31T00:00:26;12.70;;;2.90;;
50433;SDS011;36361;38.954;-9.002;2022-10-31T00:01:28;10.15;;;3.08;;
50433;SDS011;36361;38.954;-9.002;2022-10-31T00:02:30;13.57;;;3.28;;
50433;SDS011;36361;38.954;-9.002;2022-10-31T00:03:31;11.38;;;2.58;;
50433;SDS011;36361;38.954;-9.002;2022-10-31T00:04:35;6.47;;;2.05;;
50433;SDS011;36361;38.954;-9.002;2022-10-31T00:05:36;17.38;;;3.10;;
50433;SDS011;36361;38.954;-9.002;2022-10-31T00:06:41;10.82;;;2.42;;
50433;SDS011;36361;38.954;-9.002;2022-10-31T00:07:51;14.55;;;2.97;;
50433;SDS011;36361;38.954;-9.002;2022-10-31T00:08:53;12.07;;;2.60;;
50433;SDS011;36361;38.954;-9.002;2022-10-31T00:09:55;11.15;;;2.55;;
50433;SDS011;36361;38.954;-9.002;2022-10-31T00:10:56;10.27;;;2.50;;
50433;SDS011;36361;38.954;-9.002;2022-10-31T00:11:57;13.50;;;2.40;;
50433;SDS011;36361;38.954;-9.002;2022-10-31T00:12:57;13.43;;;2.40;;
50433;SDS011;36361;38.954;-9.002;2022-10-31T00:13:58;8.57;;;3.22;;
50433;SDS011;36361;38.954;-9.002;2022-10-31T00:14:59;8.50;;;1.92;;
50433;SDS011;36361;38.954;-9.002;2022-10-31T00:16:00;8.93;;;2.22;;
50433;SDS011;36361;38.954;-9.002;2022-10-31T00:17:01;5.55;;;2.05;;
50433;SDS011;36361;38.954;-9.002;2022-10-31T00:18:02;8.70;;;2.25;;
50433;SDS011;36361;38.954;-9.002;2022-10-31T00:19:05;11.48;;;2.40;;
50433;SDS011;36361;38.954;-9.002;2022-10-31T00:20:06;9.77;;;2.00;;
50433;SDS011;36361;38.954;-9.002;2022-10-31T00:21:08;7.53;;;1.92;;
50433;SDS011;36361;38.954;-9.002;2022-10-31T00:22:08;9.88;;;2.30;;
50433;SDS011;36361;38.954;-9.002;2022-10-31T00:23:09;8.90;;;2.10;;
50433;SDS011;36361;38.954;-9.002;2022-10-31T00:24:11;11.60;;;2.50;;
50433;SDS011;36361;38.954;-9.002;2022-10-31T00:25:12;5.78;;;2.22;;
50433;SDS011;36361;38.954;-9.002;2022-10-31T00:26:12;11.55;;;3.25;;
50433;SDS011;36361;38.954;-9.002;2022-10-31T00:27:13;7.47;;;3.00;;
50433;SDS011;36361;38.954;-9.002;2022-10-31T00:28:14;8.48;;;2.33;;
50433;SDS011;36361;38.954;-9.002;2022-10-31T00:29:15;8.00;;;3.00;;
50433;SDS011;36361;38.954;-9.002;2022-10-31T00:30:15;7.30;;;2.53;;
50433;SDS011;36361;38.954;-9.002;2022-10-31T00:31:16;10.38;;;2.80;;
50433;SDS011;36361;38.954;-9.002;2022-10-31T00:32:17;8.60;;;3.15;;
50433;SDS011;36361;38.954;-9.002;2022-10-31T00:33:19;8.90;;;2.85;;
50433;SDS011;36361;38.954;-9.002;2022-10-31T00:34:19;8.98;;;2.65;;
50433;SDS011;36361;38.954;-9.002;2022-10-31T00:35:20;8.55;;;2.60;;
50433;SDS011;36361;38.954;-9.002;2022-10-31T00:36:21;5.13;;;2.33;;
50433;SDS011;36361;38.954;-9.002;2022-10-31T00:37:21;8.85;;;2.13;;
50433;SDS011;36361;38.954;-9.002;2022-10-31T00:38:22;6.22;;;2.33;;
50433;SDS011;36361;38.954;-9.002;2022-10-31T00:39:23;8.18;;;2.67;;
50433;SDS011;36361;38.954;-9.002;2022-10-31T00:40:23;11.10;;;2.60;;
50433;SDS011;36361;38.954;-9.002;2022-10-31T00:41:25;8.77;;;2.05;;
50433;SDS011;36361;38.954;-9.002;2022-10-31T00:42:26;8.35;;;2.58;;
50433;SDS011;36361;38.954;-9.002;2022-10-31T00:43:26;5.43;;;2.20;;
50433;SDS011;36361;38.954;-9.002;2022-10-31T00:44:27;5.43;;;2.50;;
50433;SDS011;36361;38.954;-9.002;2022-10-31T00:45:28;8.90;;;2.67;;
50433;SDS011;36361;38.954;-9.002;2022-10-31T00:46:28;7.60;;;2.30;;
50433;SDS011;36361;38.954;-9.002;2022-10-31T00:47:29;7.40;;;2.80;;
50433;SDS011;36361;38.954;-9.002;2022-10-31T00:48:30;6.25;;;2.38;;
50433;SDS011;36361;38.954;-9.002;2022-10-31T00:49:30;10.80;;;2.92;;
50433;SDS011;36361;38.954;-9.002;2022-10-31T00:50:31;11.25;;;2.60;;
50433;SDS011;36361;38.954;-9.002;2022-10-31T00:51:32;7.35;;;2.40;;
50433;SDS011;36361;38.954;-9.002;2022-10-31T00:52:33;8.90;;;2.80;;
50433;SDS011;36361;38.954;-9.002;2022-10-31T00:53:35;10.60;;;2.88;;
50433;SDS011;36361;38.954;-9.002;2022-10-31T00:54:35;7.35;;;2.53;;
50433;SDS011;36361;38.954;-9.002;2022-10-31T00:55:36;6.32;;;2.30;;
50433;SDS011;36361;38.954;-9.002;2022-10-31T00:56:37;6.90;;;2.60;;
50433;SDS011;36361;38.954;-9.002;2022-10-31T00:57:37;8.52;;;3.10;;
50433;SDS011;36361;38.954;-9.002;2022-10-31T00:58:39;13.07;;;3.03;;
50433;SDS011;36361;38.954;-9.002;2022-10-31T00:59:40;9.98;;;3.35;;
50433;SDS011;36361;38.954;-9.002;2022-10-31T01:00:41;8.70;;;3.30;;
50433;SDS011;36361;38.954;-9.002;2022-10-31T01:01:42;10.52;;;3.78;;
50433;SDS011;36361;38.954;-9.002;2022-10-31T01:02:43;10.38;;;3.80;;
50433;SDS011;36361;38.954;-9.002;2022-10-31T01:03:47;7.50;;;3.17;;
50433;SDS011;36361;38.954;-9.002;2022-10-31T01:04:47;6.55;;;3.08;;
50433;SDS011;36361;38.954;-9.002;2022-10-31T01:06:21;5.38;;;2.90;;
50433;SDS011;36361;38.954;-9.002;2022-10-31T01:07:16;5.22;;;2.58;;
50433;SDS011;36361;38.954;-9.002;2022-10-31T01:08:18;5.55;;;3.10;;
50433;SDS011;36361;38.954;-9.002;2022-10-31T01:09:21;8.23;;;3.47;;
50433;SDS011;36361;38.954;-9.002;2022-10-31T01:10:22;6.40;;;2.95;;
50433;SDS011;36361;38.954;-9.002;2022-10-31T01:11:24;6.57;;;2.63;;
50433;SDS011;36361;38.954;-9.002;2022-10-31T01:12:25;6.07;;;2.70;;
50433;SDS011;36361;38.954;-9.002;2022-10-31T01:13:26;8.20;;;2.97;;
50433;SDS011;36361;38.954;-9.002;2022-10-31T01:14:26;9.02;;;2.85;;
50433;SDS011;36361;38.954;-9.002;2022-10-31T01:15:30;9.07;;;3.10;;
50433;SDS011;36361;38.954;-9.002;2022-10-31T01:16:32;8.27;;;2.88;;
50433;SDS011;36361;38.954;-9.002;2022-10-31T01:17:33;6.13;;;2.33;;
50433;SDS011;36361;38.954;-9.002;2022-10-31T01:18:34;11.40;;;2.90;;
50433;SDS011;36361;38.954;-9.002;2022-10-31T01:19:35;10.60;;;2.75;;
50433;SDS011;36361;38.954;-9.002;2022-10-31T01:20:35;8.02;;;2.13;;
50433;SDS011;36361;38.954;-9.002;2022-10-31T01:21:36;5.45;;;2.80;;
50433;SDS011;36361;38.954;-9.002;2022-10-31T01:22:37;5.30;;;2.20;;
50433;SDS011;36361;38.954;-9.002;2022-10-31T01:23:38;5.88;;;2.00;;
50433;SDS011;36361;38.954;-9.002;2022-10-31T01:24:45;9.18;;;2.95;;
50433;SDS011;36361;38.954;-9.002;2022-10-31T01:25:46;10.70;;;3.78;;
50433;SDS011;36361;38.954;-9.002;2022-10-31T01:26:46;10.55;;;3.08;;
50433;SDS011;36361;38.954;-9.002;2022-10-31T01:27:47;10.43;;;3.60;;
50433;SDS011;36361;38.954;-9.002;2022-10-31T01:28:49;12.18;;;3.13;;
50433;SDS011;36361;38.954;-9.002;2022-10-31T01:29:51;8.35;;;2.83;;
50433;SDS011;36361;38.954;-9.002;2022-10-31T01:30:52;7.22;;;2.88;;
50433;SDS011;36361;38.954;-9.002;2022-10-31T01:31:52;5.97;;;2.72;;
50433;SDS011;36361;38.954;-9.002;2022-10-31T01:32:54;7.45;;;2.38;;
50433;SDS011;36361;38.954;-9.002;2022-10-31T01:33:55;12.65;;;3.92;;
50433;SDS011;36361;38.954;-9.002;2022-10-31T01:34:56;10.77;;;3.58;;
50433;SDS011;36361;38.954;-9.002;2022-10-31T01:35:56;8.13;;;2.60;;
50433;SDS011;36361;38.954;-9.002;2022-10-31T01:36:57;7.90;;;3.30;;
50433;SDS011;36361;38.954;-9.002;2022-10-31T01:37:58;12.35;;;3.58;;
50433;SDS011;36361;38.954;-9.002;2022-10-31T01:39:00;8.82;;;3.38;;
50433;SDS011;36361;38.954;-9.002;2022-10-31T01:40:03;10.00;;;3.45;;
50433;SDS011;36361;38.954;-9.002;2022-10-31T01:41:04;10.35;;;3.65;;
50433;SDS011;36361;38.954;-9.002;2022-10-31T01:42:04;7.30;;;3.20;;
50433;SDS011;36361;38.954;-9.002;2022-10-31T01:43:08;6.93;;;3.17;;
50433;SDS011;36361;38.954;-9.002;2022-10-31T01:45:17;8.13;;;3.47;;
50433;SDS011;36361;38.954;-9.002;2022-10-31T01:46:25;8.40;;;3.45;;
50433;SDS011;36361;38.954;-9.002;2022-10-31T01:47:40;6.93;;;3.05;;
50433;SDS011;36361;38.954;-9.002;2022-10-31T01:48:45;7.43;;;3.03;;
50433;SDS011;36361;38.954;-9.002;2022-10-31T01:49:48;10.23;;;3.00;;
50433;SDS011;36361;38.954;-9.002;2022-10-31T01:50:53;9.23;;;2.90;;
50433;SDS011;36361;38.954;-9.002;2022-10-31T01:51:58;6.57;;;3.40;;
50433;SDS011;36361;38.954;-9.002;2022-10-31T01:53:07;10.77;;;3.13;;
50433;SDS011;36361;38.954;-9.002;2022-10-31T01:54:10;8.30;;;3.47;;
50433;SDS011;36361;38.954;-9.002;2022-10-31T01:55:20;13.05;;;4.10;;
50433;SDS011;36361;38.954;-9.002;2022-10-31T01:56:25;7.32;;;3.60;;
50433;SDS011;36361;38.954;-9.002;2022-10-31T01:57:26;8.52;;;3.78;;
50433;SDS011;36361;38.954;-9.002;2022-10-31T01:58:29;7.80;;;3.55;;
50433;SDS011;36361;38.954;-9.002;2022-10-31T01:59:32;9.68;;;3.55;;
50433;SDS011;36361;38.954;-9.002;2022-10-31T02:00:35;8.32;;;2.88;;
50433;SDS011;36361;38.954;-9.002;2022-10-31T02:01:37;5.35;;;3.00;;
50433;SDS011;36361;38.954;-9.002;2022-10-31T02:02:38;9.32;;;3.63;;
50433;SDS011;36361;38.954;-9.002;2022-10-31T02:03:38;6.30;;;3.00;;
50433;SDS011;36361;38.954;-9.002;2022-10-31T02:04:39;6.63;;;3.45;;
50433;SDS011;36361;38.954;-9.002;2022-10-31T02:05:41;6.82;;;3.08;;
50433;SDS011;36361;38.954;-9.002;2022-10-31T02:06:47;8.30;;;3.17;;
50433;SDS011;36361;38.954;-9.002;2022-10-31T02:09:06;9.98;;;3.00;;
50433;SDS011;36361;38.954;-9.002;2022-10-31T02:10:07;11.13;;;3.75;;
50433;SDS011;36361;38.954;-9.002;2022-10-31T02:11:07;8.88;;;3.22;;
50433;SDS011;36361;38.954;-9.002;2022-10-31T02:12:10;9.13;;;3.10;;
50433;SDS011;36361;38.954;-9.002;2022-10-31T02:13:12;9.15;;;3.45;;
50433;SDS011;36361;38.954;-9.002;2022-10-31T02:14:19;13.25;;;3.40;;
50433;SDS011;36361;38.954;-9.002;2022-10-31T02:15:25;10.25;;;3.40;;
50433;SDS011;36361;38.954;-9.002;2022-10-31T02:16:27;7.40;;;3.60;;
50433;SDS011;36361;38.954;-9.002;2022-10-31T02:17:28;9.20;;;3.30;;
50433;SDS011;36361;38.954;-9.002;2022-10-31T02:18:31;6.95;;;3.50;;
50433;SDS011;36361;38.954;-9.002;2022-10-31T02:22:11;11.40;;;4.47;;
50433;SDS011;36361;38.954;-9.002;2022-10-31T02:28:32;13.32;;;3.38;;
50433;SDS011;36361;38.954;-9.002;2022-10-31T02:29:35;10.57;;;3.53;;
50433;SDS011;36361;38.954;-9.002;2022-10-31T02:33:07;10.23;;;4.32;;
50433;SDS011;36361;38.954;-9.002;2022-10-31T02:36:29;5.85;;;3.42;;
50433;SDS011;36361;38.954;-9.002;2022-10-31T02:42:39;6.97;;;2.85;;
50433;SDS011;36361;38.954;-9.002;2022-10-31T02:44:11;9.23;;;3.63;;
50433;SDS011;36361;38.954;-9.002;2022-10-31T02:47:50;6.03;;;2.95;;
50433;SDS011;36361;38.954;-9.002;2022-10-31T02:48:57;7.95;;;3.80;;
50433;SDS011;36361;38.954;-9.002;2022-10-31T02:50:15;9.32;;;3.03;;
50433;SDS011;36361;38.954;-9.002;2022-10-31T02:51:28;6.95;;;3.25;;
50433;SDS011;36361;38.954;-9.002;2022-10-31T02:52:30;8.35;;;4.18;;
50433;SDS011;36361;38.954;-9.002;2022-10-31T02:53:36;7.85;;;3.88;;
50433;SDS011;36361;38.954;-9.002;2022-10-31T02:54:38;9.40;;;4.50;;
50433;SDS011;36361;38.954;-9.002;2022-10-31T02:55:51;7.35;;;4.22;;
50433;SDS011;36361;38.954;-9.002;2022-10-31T02:57:04;11.30;;;4.38;;
50433;SDS011;36361;38.954;-9.002;2022-10-31T02:58:09;10.75;;;4.32;;
50433;SDS011;36361;38.954;-9.002;2022-10-31T02:59:13;14.75;;;5.38;;
50433;SDS011;36361;38.954;-9.002;2022-10-31T03:00:13;9.52;;;6.28;;
50433;SDS011;36361;38.954;-9.002;2022-10-31T03:02:46;10.43;;;5.25;;
50433;SDS011;36361;38.954;-9.002;2022-10-31T03:05:40;11.38;;;6.60;;
50433;SDS011;36361;38.954;-9.002;2022-10-31T03:11:53;17.38;;;8.65;;
50433;SDS011;36361;38.954;-9.002;2022-10-31T03:13:02;11.63;;;8.80;;
50433;SDS011;36361;38.954;-9.002;2022-10-31T03:14:10;13.57;;;8.88;;
50433;SDS011;36361;38.954;-9.002;2022-10-31T03:16:38;13.98;;;9.90;;
50433;SDS011;36361;38.954;-9.002;2022-10-31T03:19:08;14.57;;;8.77;;
50433;SDS011;36361;38.954;-9.002;2022-10-31T03:20:10;12.77;;;8.10;;
50433;SDS011;36361;38.954;-9.002;2022-10-31T03:21:14;13.38;;;8.40;;
50433;SDS011;36361;38.954;-9.002;2022-10-31T03:22:23;10.15;;;8.10;;
50433;SDS011;36361;38.954;-9.002;2022-10-31T03:23:28;14.10;;;8.80;;
50433;SDS011;36361;38.954;-9.002;2022-10-31T03:24:33;9.73;;;8.40;;
50433;SDS011;36361;38.954;-9.002;2022-10-31T03:25:37;10.27;;;7.88;;
50433;SDS011;36361;38.954;-9.002;2022-10-31T03:26:43;11.05;;;7.65;;
50433;SDS011;36361;38.954;-9.002;2022-10-31T03:27:47;15.40;;;8.68;;
50433;SDS011;36361;38.954;-9.002;2022-10-31T03:28:53;12.07;;;7.97;;
50433;SDS011;36361;38.954;-9.002;2022-10-31T03:29:58;13.30;;;8.48;;
50433;SDS011;36361;38.954;-9.002;2022-10-31T03:31:06;17.00;;;7.95;;
50433;SDS011;36361;38.954;-9.002;2022-10-31T03:32:13;12.25;;;8.35;;
50433;SDS011;36361;38.954;-9.002;2022-10-31T03:33:21;10.57;;;7.28;;
50433;SDS011;36361;38.954;-9.002;2022-10-31T03:34:27;17.38;;;8.43;;
50433;SDS011;36361;38.954;-9.002;2022-10-31T03:35:30;12.80;;;8.05;;
50433;SDS011;36361;38.954;-9.002;2022-10-31T03:36:33;15.05;;;7.82;;
50433;SDS011;36361;38.954;-9.002;2022-10-31T03:37:39;11.80;;;7.70;;
50433;SDS011;36361;38.954;-9.002;2022-10-31T03:38:46;10.68;;;7.90;;
50433;SDS011;36361;38.954;-9.002;2022-10-31T03:39:49;14.75;;;8.00;;
50433;SDS011;36361;38.954;-9.002;2022-10-31T03:40:51;14.23;;;7.80;;
50433;SDS011;36361;38.954;-9.002;2022-10-31T03:41:54;13.32;;;8.00;;
50433;SDS011;36361;38.954;-9.002;2022-10-31T03:43:03;12.75;;;8.57;;
50433;SDS011;36361;38.954;-9.002;2022-10-31T03:44:10;12.52;;;8.38;;
50433;SDS011;36361;38.954;-9.002;2022-10-31T03:45:16;13.98;;;8.30;;
50433;SDS011;36361;38.954;-9.002;2022-10-31T03:46:22;13.65;;;7.80;;
50433;SDS011;36361;38.954;-9.002;2022-10-31T03:47:28;13.50;;;7.90;;
50433;SDS011;36361;38.954;-9.002;2022-10-31T03:48:29;12.25;;;7.47;;
50433;SDS011;36361;38.954;-9.002;2022-10-31T03:49:36;12.48;;;8.25;;
50433;SDS011;36361;38.954;-9.002;2022-10-31T03:50:38;12.90;;;7.20;;
50433;SDS011;36361;38.954;-9.002;2022-10-31T03:53:30;14.07;;;8.52;;
50433;SDS011;36361;38.954;-9.002;2022-10-31T03:54:44;10.50;;;7.57;;
50433;SDS011;36361;38.954;-9.002;2022-10-31T03:55:48;14.88;;;8.10;;
50433;SDS011;36361;38.954;-9.002;2022-10-31T03:56:56;12.75;;;8.65;;
50433;SDS011;36361;38.954;-9.002;2022-10-31T03:58:08;11.27;;;7.50;;
50433;SDS011;36361;38.954;-9.002;2022-10-31T03:59:32;14.93;;;7.47;;
50433;SDS011;36361;38.954;-9.002;2022-10-31T04:00:35;12.13;;;8.98;;
50433;SDS011;36361;38.954;-9.002;2022-10-31T04:01:43;12.13;;;7.45;;
50433;SDS011;36361;38.954;-9.002;2022-10-31T04:02:57;12.25;;;7.90;;
50433;SDS011;36361;38.954;-9.002;2022-10-31T04:04:05;11.57;;;8.30;;
50433;SDS011;36361;38.954;-9.002;2022-10-31T04:05:07;11.85;;;7.28;;
50433;SDS011;36361;38.954;-9.002;2022-10-31T04:06:10;13.52;;;8.20;;
50433;SDS011;36361;38.954;-9.002;2022-10-31T04:07:15;13.07;;;8.48;;
50433;SDS011;36361;38.954;-9.002;2022-10-31T04:08:19;13.60;;;8.18;;
50433;SDS011;36361;38.954;-9.002;2022-10-31T04:09:24;13.95;;;7.82;;
50433;SDS011;36361;38.954;-9.002;2022-10-31T04:10:26;12.75;;;8.45;;
50433;SDS011;36361;38.954;-9.002;2022-10-31T04:11:33;10.40;;;7.95;;
50433;SDS011;36361;38.954;-9.002;2022-10-31T04:12:58;17.67;;;8.63;;
50433;SDS011;36361;38.954;-9.002;2022-10-31T04:14:09;14.27;;;7.93;;
50433;SDS011;36361;38.954;-9.002;2022-10-31T04:15:11;14.40;;;7.97;;
50433;SDS011;36361;38.954;-9.002;2022-10-31T04:16:14;11.50;;;7.85;;
50433;SDS011;36361;38.954;-9.002;2022-10-31T04:17:17;12.10;;;7.70;;
50433;SDS011;36361;38.954;-9.002;2022-10-31T04:18:24;15.25;;;8.82;;
50433;SDS011;36361;38.954;-9.002;2022-10-31T04:19:25;10.70;;;7.90;;
50433;SDS011;36361;38.954;-9.002;2022-10-31T04:20:31;16.38;;;8.60;;
50433;SDS011;36361;38.954;-9.002;2022-10-31T04:21:31;12.48;;;8.45;;
50433;SDS011;36361;38.954;-9.002;2022-10-31T04:22:32;14.48;;;7.93;;
50433;SDS011;36361;38.954;-9.002;2022-10-31T04:23:34;13.02;;;7.72;;
50433;SDS011;36361;38.954;-9.002;2022-10-31T04:24:43;10.60;;;6.88;;
50433;SDS011;36361;38.954;-9.002;2022-10-31T04:25:49;12.32;;;7.47;;
50433;SDS011;36361;38.954;-9.002;2022-10-31T04:26:54;12.02;;;6.80;;
50433;SDS011;36361;38.954;-9.002;2022-10-31T04:27:59;12.32;;;7.45;;
50433;SDS011;36361;38.954;-9.002;2022-10-31T04:29:00;13.63;;;8.10;;
50433;SDS011;36361;38.954;-9.002;2022-10-31T04:30:02;13.52;;;8.00;;
50433;SDS011;36361;38.954;-9.002;2022-10-31T04:31:08;10.20;;;6.85;;
50433;SDS011;36361;38.954;-9.002;2022-10-31T04:32:12;13.35;;;6.97;;
50433;SDS011;36361;38.954;-9.002;2022-10-31T04:33:16;10.68;;;4.88;;
50433;SDS011;36361;38.954;-9.002;2022-10-31T04:34:19;9.63;;;4.90;;
50433;SDS011;36361;38.954;-9.002;2022-10-31T04:35:20;7.63;;;3.83;;
50433;SDS011;36361;38.954;-9.002;2022-10-31T04:36:21;6.95;;;4.20;;
50433;SDS011;36361;38.954;-9.002;2022-10-31T04:37:22;11.77;;;4.53;;
50433;SDS011;36361;38.954;-9.002;2022-10-31T04:38:23;10.63;;;4.05;;
50433;SDS011;36361;38.954;-9.002;2022-10-31T04:39:24;10.55;;;3.90;;
50433;SDS011;36361;38.954;-9.002;2022-10-31T04:40:45;5.30;;;2.08;;
50433;SDS011;36361;38.954;-9.002;2022-10-31T04:42:06;4.55;;;1.65;;
50433;SDS011;36361;38.954;-9.002;2022-10-31T04:43:07;5.30;;;1.95;;
50433;SDS011;36361;38.954;-9.002;2022-10-31T04:44:08;3.10;;;1.48;;
50433;SDS011;36361;38.954;-9.002;2022-10-31T04:45:09;7.38;;;1.75;;
50433;SDS011;36361;38.954;-9.002;2022-10-31T04:46:11;5.47;;;1.63;;
50433;SDS011;36361;38.954;-9.002;2022-10-31T04:47:11;5.03;;;1.20;;
50433;SDS011;36361;38.954;-9.002;2022-10-31T04:48:12;6.03;;;1.75;;
50433;SDS011;36361;38.954;-9.002;2022-10-31T04:49:15;8.40;;;1.60;;
50433;SDS011;36361;38.954;-9.002;2022-10-31T04:50:16;5.53;;;1.30;;
50433;SDS011;36361;38.954;-9.002;2022-10-31T04:51:18;5.38;;;1.73;;
50433;SDS011;36361;38.954;-9.002;2022-10-31T04:52:19;4.80;;;1.48;;
50433;SDS011;36361;38.954;-9.002;2022-10-31T04:53:20;6.70;;;1.90;;
50433;SDS011;36361;38.954;-9.002;2022-10-31T04:54:41;7.15;;;1.73;;
50433;SDS011;36361;38.954;-9.002;2022-10-31T04:57:09;4.03;;;1.73;;
50433;SDS011;36361;38.954;-9.002;2022-10-31T04:58:10;11.80;;;1.70;;
50433;SDS011;36361;38.954;-9.002;2022-10-31T04:59:11;5.65;;;1.60;;
50433;SDS011;36361;38.954;-9.002;2022-10-31T05:00:25;3.63;;;1.90;;
50433;SDS011;36361;38.954;-9.002;2022-10-31T05:01:26;4.28;;;1.17;;
50433;SDS011;36361;38.954;-9.002;2022-10-31T05:02:29;9.43;;;1.67;;
50433;SDS011;36361;38.954;-9.002;2022-10-31T05:03:31;3.90;;;1.70;;
50433;SDS011;36361;38.954;-9.002;2022-10-31T05:04:32;7.18;;;2.08;;
50433;SDS011;36361;38.954;-9.002;2022-10-31T05:05:32;10.02;;;2.40;;
50433;SDS011;36361;38.954;-9.002;2022-10-31T05:06:36;7.15;;;1.50;;
50433;SDS011;36361;38.954;-9.002;2022-10-31T05:07:40;7.00;;;2.22;;
50433;SDS011;36361;38.954;-9.002;2022-10-31T05:08:42;5.53;;;1.50;;
50433;SDS011;36361;38.954;-9.002;2022-10-31T05:09:44;7.53;;;2.40;;
50433;SDS011;36361;38.954;-9.002;2022-10-31T05:10:46;5.20;;;1.40;;
50433;SDS011;36361;38.954;-9.002;2022-10-31T05:11:47;8.27;;;1.60;;
50433;SDS011;36361;38.954;-9.002;2022-10-31T05:13:13;8.27;;;2.50;;
50433;SDS011;36361;38.954;-9.002;2022-10-31T05:14:18;4.63;;;2.10;;
50433;SDS011;36361;38.954;-9.002;2022-10-31T05:15:38;5.72;;;2.13;;
50433;SDS011;36361;38.954;-9.002;2022-10-31T05:17:05;9.48;;;2.42;;
50433;SDS011;36361;38.954;-9.002;2022-10-31T05:18:24;6.28;;;2.88;;
50433;SDS011;36361;38.954;-9.002;2022-10-31T05:19:44;5.97;;;2.55;;
50433;SDS011;36361;38.954;-9.002;2022-10-31T05:22:17;6.47;;;2.28;;
50433;SDS011;36361;38.954;-9.002;2022-10-31T05:23:18;10.43;;;2.72;;
50433;SDS011;36361;38.954;-9.002;2022-10-31T05:24:20;9.48;;;3.22;;
50433;SDS011;36361;38.954;-9.002;2022-10-31T05:25:22;9.00;;;2.67;;
50433;SDS011;36361;38.954;-9.002;2022-10-31T05:26:26;8.80;;;2.80;;
50433;SDS011;36361;38.954;-9.002;2022-10-31T05:27:28;8.75;;;2.30;;
50433;SDS011;36361;38.954;-9.002;2022-10-31T05:28:29;6.07;;;2.55;;
50433;SDS011;36361;38.954;-9.002;2022-10-31T05:29:31;7.82;;;2.50;;
50433;SDS011;36361;38.954;-9.002;2022-10-31T05:30:34;7.80;;;3.50;;
50433;SDS011;36361;38.954;-9.002;2022-10-31T05:31:37;8.63;;;3.10;;
50433;SDS011;36361;38.954;-9.002;2022-10-31T05:32:39;8.07;;;3.45;;
50433;SDS011;36361;38.954;-9.002;2022-10-31T05:34:07;7.93;;;3.17;;
50433;SDS011;36361;38.954;-9.002;2022-10-31T05:35:27;10.07;;;3.20;;
50433;SDS011;36361;38.954;-9.002;2022-10-31T05:36:51;7.00;;;3.17;;
50433;SDS011;36361;38.954;-9.002;2022-10-31T05:37:56;7.05;;;3.03;;
50433;SDS011;36361;38.954;-9.002;2022-10-31T05:38:57;11.32;;;3.38;;
50433;SDS011;36361;38.954;-9.002;2022-10-31T05:40:03;7.95;;;3.03;;
50433;SDS011;36361;38.954;-9.002;2022-10-31T05:41:05;8.70;;;3.13;;
50433;SDS011;36361;38.954;-9.002;2022-10-31T05:42:07;7.90;;;3.13;;
50433;SDS011;36361;38.954;-9.002;2022-10-31T05:43:08;9.43;;;3.95;;
50433;SDS011;36361;38.954;-9.002;2022-10-31T05:44:09;11.95;;;3.53;;
50433;SDS011;36361;38.954;-9.002;2022-10-31T05:45:23;6.95;;;2.75;;
50433;SDS011;36361;38.954;-9.002;2022-10-31T05:46:29;4.97;;;2.97;;
50433;SDS011;36361;38.954;-9.002;2022-10-31T05:47:59;10.38;;;3.08;;
50433;SDS011;36361;38.954;-9.002;2022-10-31T05:49:23;11.60;;;3.67;;
50433;SDS011;36361;38.954;-9.002;2022-10-31T05:51:02;10.43;;;2.95;;
50433;SDS011;36361;38.954;-9.002;2022-10-31T05:52:03;7.75;;;3.45;;
50433;SDS011;36361;38.954;-9.002;2022-10-31T05:53:12;7.10;;;2.90;;
50433;SDS011;36361;38.954;-9.002;2022-10-31T05:54:14;11.38;;;3.70;;
50433;SDS011;36361;38.954;-9.002;2022-10-31T05:55:15;8.82;;;3.33;;
50433;SDS011;36361;38.954;-9.002;2022-10-31T05:56:31;9.20;;;3.53;;
50433;SDS011;36361;38.954;-9.002;2022-10-31T05:57:32;9.35;;;3.78;;
50433;SDS011;36361;38.954;-9.002;2022-10-31T05:58:33;9.18;;;3.28;;
50433;SDS011;36361;38.954;-9.002;2022-10-31T05:59:38;12.43;;;3.40;;
50433;SDS011;36361;38.954;-9.002;2022-10-31T06:00:39;10.48;;;3.38;;
50433;SDS011;36361;38.954;-9.002;2022-10-31T06:01:42;8.88;;;3.15;;
50433;SDS011;36361;38.954;-9.002;2022-10-31T06:02:58;10.75;;;3.65;;
50433;SDS011;36361;38.954;-9.002;2022-10-31T06:04:12;16.00;;;3.80;;
50433;SDS011;36361;38.954;-9.002;2022-10-31T06:05:13;14.75;;;3.47;;
50433;SDS011;36361;38.954;-9.002;2022-10-31T06:06:20;11.40;;;3.65;;
50433;SDS011;36361;38.954;-9.002;2022-10-31T06:07:21;12.80;;;3.50;;
50433;SDS011;36361;38.954;-9.002;2022-10-31T06:08:25;11.80;;;3.65;;
50433;SDS011;36361;38.954;-9.002;2022-10-31T06:09:27;11.35;;;3.83;;
50433;SDS011;36361;38.954;-9.002;2022-10-31T06:10:29;10.00;;;4.10;;
50433;SDS011;36361;38.954;-9.002;2022-10-31T06:11:33;11.98;;;3.53;;
50433;SDS011;36361;38.954;-9.002;2022-10-31T06:12:36;7.75;;;3.15;;
50433;SDS011;36361;38.954;-9.002;2022-10-31T06:14:06;11.38;;;3.88;;
50433;SDS011;36361;38.954;-9.002;2022-10-31T06:15:17;10.45;;;2.88;;
50433;SDS011;36361;38.954;-9.002;2022-10-31T06:16:18;10.23;;;3.90;;
50433;SDS011;36361;38.954;-9.002;2022-10-31T06:17:19;9.10;;;3.20;;
50433;SDS011;36361;38.954;-9.002;2022-10-31T06:18:23;8.73;;;3.13;;
50433;SDS011;36361;38.954;-9.002;2022-10-31T06:19:25;10.25;;;3.03;;
50433;SDS011;36361;38.954;-9.002;2022-10-31T06:20:26;9.40;;;3.40;;
50433;SDS011;36361;38.954;-9.002;2022-10-31T06:21:32;10.30;;;3.78;;
50433;SDS011;36361;38.954;-9.002;2022-10-31T06:22:33;9.63;;;3.03;;
50433;SDS011;36361;38.954;-9.002;2022-10-31T06:23:34;11.45;;;3.50;;
50433;SDS011;36361;38.954;-9.002;2022-10-31T06:25:00;13.85;;;4.63;;
50433;SDS011;36361;38.954;-9.002;2022-10-31T06:26:11;16.77;;;4.07;;
50433;SDS011;36361;38.954;-9.002;2022-10-31T06:27:11;13.93;;;4.20;;
50433;SDS011;36361;38.954;-9.002;2022-10-31T06:28:15;10.63;;;3.20;;
50433;SDS011;36361;38.954;-9.002;2022-10-31T06:29:25;9.13;;;3.60;;
50433;SDS011;36361;38.954;-9.002;2022-10-31T06:30:48;8.45;;;2.78;;
50433;SDS011;36361;38.954;-9.002;2022-10-31T06:31:52;9.65;;;3.15;;
50433;SDS011;36361;38.954;-9.002;2022-10-31T06:32:53;13.95;;;3.78;;
50433;SDS011;36361;38.954;-9.002;2022-10-31T06:33:54;9.93;;;3.22;;
50433;SDS011;36361;38.954;-9.002;2022-10-31T06:34:55;12.32;;;3.58;;
50433;SDS011;36361;38.954;-9.002;2022-10-31T06:35:57;8.32;;;2.92;;
50433;SDS011;36361;38.954;-9.002;2022-10-31T06:36:58;11.73;;;4.22;;
50433;SDS011;36361;38.954;-9.002;2022-10-31T06:38:00;12.70;;;3.90;;
50433;SDS011;36361;38.954;-9.002;2022-10-31T06:39:07;9.63;;;3.08;;
50433;SDS011;36361;38.954;-9.002;2022-10-31T06:40:07;11.93;;;3.70;;
50433;SDS011;36361;38.954;-9.002;2022-10-31T06:41:28;8.38;;;3.15;;
50433;SDS011;36361;38.954;-9.002;2022-10-31T06:42:28;12.68;;;3.75;;
50433;SDS011;36361;38.954;-9.002;2022-10-31T06:43:29;10.00;;;3.35;;
50433;SDS011;36361;38.954;-9.002;2022-10-31T06:44:50;11.23;;;3.40;;
50433;SDS011;36361;38.954;-9.002;2022-10-31T06:47:20;10.70;;;3.90;;
50433;SDS011;36361;38.954;-9.002;2022-10-31T06:48:41;11.50;;;3.35;;
50433;SDS011;36361;38.954;-9.002;2022-10-31T06:50:07;10.65;;;3.67;;
50433;SDS011;36361;38.954;-9.002;2022-10-31T06:51:08;10.80;;;3.78;;
50433;SDS011;36361;38.954;-9.002;2022-10-31T06:52:09;10.90;;;3.50;;
50433;SDS011;36361;38.954;-9.002;2022-10-31T06:53:10;10.85;;;4.60;;
50433;SDS011;36361;38.954;-9.002;2022-10-31T06:54:11;9.88;;;4.00;;
50433;SDS011;36361;38.954;-9.002;2022-10-31T06:55:11;11.15;;;3.80;;
50433;SDS011;36361;38.954;-9.002;2022-10-31T06:56:12;11.48;;;3.90;;
50433;SDS011;36361;38.954;-9.002;2022-10-31T06:57:18;13.68;;;3.80;;
50433;SDS011;36361;38.954;-9.002;2022-10-31T06:58:19;11.57;;;3.60;;
50433;SDS011;36361;38.954;-9.002;2022-10-31T06:59:22;12.23;;;4.07;;
50433;SDS011;36361;38.954;-9.002;2022-10-31T07:00:53;8.98;;;3.60;;
50433;SDS011;36361;38.954;-9.002;2022-10-31T07:01:54;10.45;;;3.75;;